METAR Data
IDs: Format: Raw Decoded Include TAF

Data at: 1356 UTC 14 Dec 2019

PFWS 141348Z AUTO 12006KT 10SM UP SCT023 BKN030 OVC039 00/00 A2938 RMK AO2 RAB02E11UPB11 P0000 FZRANO
PFWS 141309Z AUTO 11006KT 10SM -RA BKN027 OVC037 01/01 A2938 RMK AO2 RAB02 P0000 FZRANO
PFWS 141256Z AUTO 10007KT 10SM FEW022 OVC033 01/01 A2939 RMK AO2 SLP994 T00060006 FZRANO
PFWS 141156Z AUTO 10005KT 10SM OVC036 00/00 A2940 RMK AO2 SLP000 60000 T00000000 10000 21022 58011 FZRANO
PFWS 141056Z AUTO 12006KT 10SM FEW025 OVC032 M01/M01 A2942 RMK AO2 SLP007 T10061006 FZRANO
PFWS 140956Z AUTO 12005KT 10SM FEW019 BKN029 OVC033 M01/M01 A2944 RMK AO2 SLP011 T10111011 FZRANO
PFWS 140856Z AUTO 13007KT 10SM SCT044 BKN065 M02/M02 A2944 RMK AO2 SLP012 60000 T10221022 400001039 55003 FZRANO
PFWS 140847Z AUTO 12006KT 3SM BR FEW002 BKN044 OVC060 M02/M02 A2943 RMK AO2 FZRANO
PFWS 140839Z AUTO 11008KT 1 1/4SM BR FEW002 BKN046 BKN060 M02/M02 A2944 RMK AO2 FZRANO
PFWS 140831Z AUTO 12008KT 2 1/2SM BR SCT002 BKN046 BKN060 M02/M02 A2944 RMK AO2 FZRANO
PFWS 140815Z AUTO 12007KT 3SM BR BKN002 BKN055 M02/M02 A2943 RMK AO2 FZRANO
PFWS 140809Z AUTO 12007KT 1 1/4SM BR OVC002 M02/M02 A2943 RMK AO2 FZRANO
PFWS 140805Z AUTO 12007KT 3/4SM BR OVC002 M02/M02 A2943 RMK AO2 FZRANO
PFWS 140756Z AUTO 10007KT 1/4SM FZFG OVC002 M02/M02 A2943 RMK AO2 UPE17 SLP009 P0000 T10221022 FZRANO
PFWS 140746Z AUTO 11006KT 1/4SM FZFG OVC002 M02/M02 A2943 RMK AO2 UPE17 P0000 FZRANO
PFWS 140734Z AUTO 11007KT 3/4SM BR BKN002 OVC080 M02/M02 A2942 RMK AO2 UPE17 P0000 FZRANO
PFWS 140727Z AUTO 12006KT 1 3/4SM BR BKN002 OVC075 M01/M01 A2943 RMK AO2 UPE17 P0000 FZRANO
PFWS 140722Z AUTO 11006KT 3SM BR BKN002 OVC075 M01/M01 A2943 RMK AO2 UPE17 P0000 FZRANO
PFWS 140716Z AUTO 12006KT 1 1/2SM UP BR BKN002 OVC075 M01/M01 A2943 RMK AO2 P0000 FZRANO
PFWS 140711Z AUTO 12005KT 1SM UP BR SCT002 OVC075 M01/M01 A2943 RMK AO2 P0000 FZRANO
PFWS 140659Z AUTO 10005KT 3/4SM UP BR BKN002 OVC065 M01/M01 A2943 RMK AO2 P0000 FZRANO
PFWS 140656Z AUTO 11004KT 1 1/4SM UP BR BKN002 OVC060 M01/M01 A2944 RMK AO2 SLP012 P0000 T10061006 FZRANO
PFWS 140653Z AUTO 10004KT 2 1/2SM UP BR BKN002 OVC060 M01/M01 A2944 RMK AO2 P0000 FZRANO
PFWS 140624Z AUTO 13007KT 1 1/4SM UP BR BKN002 BKN020 OVC055 00/00 A2944 RMK AO2 P0000 FZRANO
PFWS 140616Z AUTO 14008KT 3/4SM UP BR BKN002 BKN020 OVC026 00/00 A2944 RMK AO2 P0000 FZRANO
PFWS 140612Z AUTO 14008KT 1SM UP BR SCT002 BKN020 OVC036 00/00 A2945 RMK AO2 P0000 FZRANO
PFWS 140556Z AUTO 14006KT 1SM UP BR BKN002 BKN025 OVC055 M01/M01 A2945 RMK AO2 UPB0459SNE0459B12E21 SLP015 P0000 60000 T10061006 11006 21011 58001 FZRANO
PFWS 140549Z AUTO 14005KT 1 3/4SM UP BR SCT002 BKN025 OVC055 M01/M01 A2945 RMK AO2 UPB0459SNE0459B12E21 P0000 FZRANO
PFWS 140547Z AUTO 14005KT 2 1/2SM UP BR SCT002 BKN012 OVC055 M01/M01 A2945 RMK AO2 UPB0459SNE0459B12E21 P0000 FZRANO
PFWS 140538Z AUTO 14006KT 10SM UP SCT002 BKN027 OVC055 M01/M01 A2945 RMK AO2 UPB0459SNE0459B12E21 P0000 FZRANO
PFWS 140506Z AUTO 13005KT 9SM UP BKN002 BKN009 OVC060 M01/M01 A2945 RMK AO2 UPB0459SNE0459 P0000 FZRANO
PFWS 140456Z AUTO 14005KT 9SM -SN FEW007 BKN019 OVC070 M01/M01 A2945 RMK AO2 UPB32E34SNE27B34 SLP016 P0000 T10111011 FZRANO
PFWS 140444Z AUTO 13005KT 9SM -SN SCT016 BKN033 OVC070 M01/M01 A2945 RMK AO2 UPB32E34SNE27B34 P0000 FZRANO
PFWS 140356Z AUTO 12004KT 5SM -SN BR OVC012 M01/M01 A2945 RMK AO2 UPE20SNB04E13B39 SLP017 P0000 T10111011 FZRANO
PFWS 140256Z AUTO 12004KT 10SM UP OVC012 M01/M01 A2945 RMK AO2 UPB06E10B43SNB10E41 SLP016 P0000 60000 T10111011 50004 FZRANO
PFWS 140156Z AUTO 15003KT 10SM BKN016 OVC080 M01/M01 A2945 RMK AO2 UPB18E28 SLP018 P0000 T10111011 FZRANO
PFWS 140056Z AUTO 00000KT 10SM BKN040 OVC055 M01/M01 A2945 RMK AO2 SLP015 T10061006 FZRANO
PFWS 132356Z AUTO 00000KT 10SM OVC036 M01/M01 A2944 RMK AO2 SLP012 T10061006 10000 21033 51017 FZRANO
PFWS 132256Z AUTO 00000KT 10SM OVC036 M01/M01 A2943 RMK AO2 SLP010 T10111011 FZRANO
PFWS 132056Z AUTO 22003KT 10SM SCT060 M02/M02 A2939 RMK AO2 SLP996 T10171017 51022 FZRANO
PFWS 131956Z AUTO 36004KT 10SM OVC046 M03/M03 A2937 RMK AO2 SLP990 T10281028 FZRANO
PFWS 131856Z AUTO 36004KT 10SM CLR M03/M03 A2934 RMK AO2 SLP981 T10331033 FZRANO
PFWS 131556Z AUTO 36006KT 10SM CLR M03/M03 A2927 RMK AO2 SLP957 T10281028 FZRANO
PFWS 131456Z AUTO 35005KT 10SM CLR M03/M03 A2926 RMK AO2 SLP951 60000 T10281028 53012 FZRANO
PFWS 131356Z AUTO 01005KT 10SM CLR M02/M02 A2924 RMK AO2 SLP945 T10221022 FZRANO
PFWS 131256Z AUTO 01009KT 10SM FEW085 OVC110 M02/M02 A2923 RMK AO2 SNE18 SLP942 P0000 T10171022 FZRANO
PFWS 131156Z AUTO 35006KT 10SM -SN BKN060 OVC070 M02/M02 A2923 RMK AO2 SNB55 SLP940 P0000 60001 70001 T10171017 10000 21017 52015 FZRANO
PFWS 131056Z AUTO 36007KT 10SM OVC085 M02/M02 A2921 RMK AO2 SLP935 T10171017 FZRANO
PFWS 130956Z AUTO 01011KT 10SM OVC080 M02/M02 A2920 RMK AO2 SLP929 T10171017 FZRANO
PFWS 130856Z AUTO 01011KT 10SM OVC085 M02/M02 A2918 RMK AO2 SLP925 60001 T10171017 400391017 53009 FZRANO
PFWS 130756Z AUTO 02012KT 10SM FEW090 BKN110 M01/M01 A2917 RMK AO2 SLP920 P0001 T10111011 FZRANO
PFWS 130556Z AUTO 01008KT 10SM UP BKN041 OVC055 00/00 A2915 RMK AO2 RAE31UPB31 SLP915 P0000 60000 T00000000 10039 20000 52007 FZRANO